sensor_id;sensor_type;location;lat;lon;timestamp;P1;durP1;ratioP1;P2;durP2;ratioP2
18711;SDS011;9485;49.386;8.674;2023-07-13T00:01:50;1.40;;;1.13;;
18711;SDS011;9485;49.386;8.674;2023-07-13T00:07:10;1.00;;;0.88;;
18711;SDS011;9485;49.386;8.674;2023-07-13T00:12:35;2.58;;;0.85;;
18711;SDS011;9485;49.386;8.674;2023-07-13T00:17:59;1.70;;;1.00;;
18711;SDS011;9485;49.386;8.674;2023-07-13T00:23:20;1.27;;;1.08;;
18711;SDS011;9485;49.386;8.674;2023-07-13T00:28:41;1.40;;;1.13;;
18711;SDS011;9485;49.386;8.674;2023-07-13T00:34:03;1.30;;;1.08;;
18711;SDS011;9485;49.386;8.674;2023-07-13T00:39:25;2.55;;;0.90;;
18711;SDS011;9485;49.386;8.674;2023-07-13T00:45:06;1.55;;;1.10;;
18711;SDS011;9485;49.386;8.674;2023-07-13T00:51:09;1.92;;;1.08;;
18711;SDS011;9485;49.386;8.674;2023-07-13T00:56:34;4.50;;;1.30;;
18711;SDS011;9485;49.386;8.674;2023-07-13T01:01:56;1.63;;;1.20;;
18711;SDS011;9485;49.386;8.674;2023-07-13T01:07:18;2.22;;;1.10;;
18711;SDS011;9485;49.386;8.674;2023-07-13T01:12:39;1.30;;;1.20;;
18711;SDS011;9485;49.386;8.674;2023-07-13T01:18:00;3.90;;;1.17;;
18711;SDS011;9485;49.386;8.674;2023-07-13T01:23:23;1.40;;;1.00;;
18711;SDS011;9485;49.386;8.674;2023-07-13T01:28:45;1.30;;;1.20;;
18711;SDS011;9485;49.386;8.674;2023-07-13T01:34:08;2.10;;;1.10;;
18711;SDS011;9485;49.386;8.674;2023-07-13T01:39:31;2.35;;;1.20;;
18711;SDS011;9485;49.386;8.674;2023-07-13T01:44:52;1.38;;;1.10;;
18711;SDS011;9485;49.386;8.674;2023-07-13T01:50:14;1.23;;;0.93;;
18711;SDS011;9485;49.386;8.674;2023-07-13T01:55:36;1.95;;;1.40;;
18711;SDS011;9485;49.386;8.674;2023-07-13T02:00:58;1.80;;;0.98;;
18711;SDS011;9485;49.386;8.674;2023-07-13T02:06:20;2.28;;;1.10;;
18711;SDS011;9485;49.386;8.674;2023-07-13T02:11:42;1.45;;;1.17;;
18711;SDS011;9485;49.386;8.674;2023-07-13T02:17:03;2.17;;;1.10;;
18711;SDS011;9485;49.386;8.674;2023-07-13T02:22:24;1.50;;;1.35;;
18711;SDS011;9485;49.386;8.674;2023-07-13T02:27:46;1.73;;;1.20;;
18711;SDS011;9485;49.386;8.674;2023-07-13T02:33:06;1.20;;;1.10;;
18711;SDS011;9485;49.386;8.674;2023-07-13T02:38:28;2.15;;;1.30;;
18711;SDS011;9485;49.386;8.674;2023-07-13T02:43:51;1.85;;;1.30;;
18711;SDS011;9485;49.386;8.674;2023-07-13T02:49:13;1.63;;;1.30;;
18711;SDS011;9485;49.386;8.674;2023-07-13T02:54:34;1.77;;;1.17;;
18711;SDS011;9485;49.386;8.674;2023-07-13T02:59:56;1.83;;;1.40;;
18711;SDS011;9485;49.386;8.674;2023-07-13T03:05:18;2.42;;;1.40;;
18711;SDS011;9485;49.386;8.674;2023-07-13T03:10:39;4.47;;;1.30;;
18711;SDS011;9485;49.386;8.674;2023-07-13T03:16:05;1.20;;;1.10;;
18711;SDS011;9485;49.386;8.674;2023-07-13T03:21:27;2.88;;;1.50;;
18711;SDS011;9485;49.386;8.674;2023-07-13T03:26:48;3.10;;;1.27;;
18711;SDS011;9485;49.386;8.674;2023-07-13T03:32:12;3.08;;;1.70;;
18711;SDS011;9485;49.386;8.674;2023-07-13T03:37:33;1.63;;;1.40;;
18711;SDS011;9485;49.386;8.674;2023-07-13T03:42:54;2.65;;;1.58;;
18711;SDS011;9485;49.386;8.674;2023-07-13T03:48:17;1.60;;;1.50;;
18711;SDS011;9485;49.386;8.674;2023-07-13T03:53:38;2.05;;;1.60;;
18711;SDS011;9485;49.386;8.674;2023-07-13T03:59:00;3.40;;;1.67;;
18711;SDS011;9485;49.386;8.674;2023-07-13T04:04:24;1.70;;;1.55;;
18711;SDS011;9485;49.386;8.674;2023-07-13T04:09:46;1.92;;;1.70;;
18711;SDS011;9485;49.386;8.674;2023-07-13T04:15:07;3.15;;;1.65;;
18711;SDS011;9485;49.386;8.674;2023-07-13T04:20:30;3.08;;;2.10;;
18711;SDS011;9485;49.386;8.674;2023-07-13T04:25:51;1.80;;;1.70;;
18711;SDS011;9485;49.386;8.674;2023-07-13T04:31:13;2.33;;;1.55;;
18711;SDS011;9485;49.386;8.674;2023-07-13T04:36:35;2.42;;;1.63;;
18711;SDS011;9485;49.386;8.674;2023-07-13T04:41:57;2.83;;;2.00;;
18711;SDS011;9485;49.386;8.674;2023-07-13T04:47:18;3.28;;;2.35;;
18711;SDS011;9485;49.386;8.674;2023-07-13T04:52:40;2.08;;;1.80;;
18711;SDS011;9485;49.386;8.674;2023-07-13T04:58:01;3.15;;;1.70;;
18711;SDS011;9485;49.386;8.674;2023-07-13T05:03:23;2.25;;;1.67;;
18711;SDS011;9485;49.386;8.674;2023-07-13T05:08:45;2.25;;;1.60;;
18711;SDS011;9485;49.386;8.674;2023-07-13T05:14:07;4.70;;;1.70;;
18711;SDS011;9485;49.386;8.674;2023-07-13T05:19:30;1.88;;;1.67;;
18711;SDS011;9485;49.386;8.674;2023-07-13T05:24:54;2.20;;;1.40;;
18711;SDS011;9485;49.386;8.674;2023-07-13T05:30:15;2.22;;;1.50;;
18711;SDS011;9485;49.386;8.674;2023-07-13T05:35:37;1.77;;;1.40;;
18711;SDS011;9485;49.386;8.674;2023-07-13T05:41:00;2.33;;;1.38;;
18711;SDS011;9485;49.386;8.674;2023-07-13T05:46:21;2.20;;;1.25;;
18711;SDS011;9485;49.386;8.674;2023-07-13T05:51:42;3.00;;;1.65;;
18711;SDS011;9485;49.386;8.674;2023-07-13T05:57:04;3.25;;;1.35;;
18711;SDS011;9485;49.386;8.674;2023-07-13T06:02:28;1.92;;;1.52;;
18711;SDS011;9485;49.386;8.674;2023-07-13T06:07:50;1.50;;;1.38;;
18711;SDS011;9485;49.386;8.674;2023-07-13T06:13:12;3.33;;;1.10;;
18711;SDS011;9485;49.386;8.674;2023-07-13T06:18:33;1.52;;;1.20;;
18711;SDS011;9485;49.386;8.674;2023-07-13T06:23:55;3.72;;;1.88;;
18711;SDS011;9485;49.386;8.674;2023-07-13T06:29:19;1.13;;;1.02;;
18711;SDS011;9485;49.386;8.674;2023-07-13T06:34:43;4.32;;;1.40;;
18711;SDS011;9485;49.386;8.674;2023-07-13T06:40:07;1.92;;;1.15;;
18711;SDS011;9485;49.386;8.674;2023-07-13T06:45:40;2.03;;;1.50;;
18711;SDS011;9485;49.386;8.674;2023-07-13T06:51:13;1.63;;;1.52;;
18711;SDS011;9485;49.386;8.674;2023-07-13T06:56:35;2.90;;;1.33;;
18711;SDS011;9485;49.386;8.674;2023-07-13T07:01:59;1.52;;;1.20;;
18711;SDS011;9485;49.386;8.674;2023-07-13T07:07:23;1.73;;;1.40;;
18711;SDS011;9485;49.386;8.674;2023-07-13T07:12:44;2.65;;;1.27;;
18711;SDS011;9485;49.386;8.674;2023-07-13T07:18:10;2.95;;;1.08;;
18711;SDS011;9485;49.386;8.674;2023-07-13T07:23:32;2.33;;;1.05;;
18711;SDS011;9485;49.386;8.674;2023-07-13T07:28:53;4.28;;;1.00;;
18711;SDS011;9485;49.386;8.674;2023-07-13T07:34:16;1.60;;;1.15;;
18711;SDS011;9485;49.386;8.674;2023-07-13T07:39:37;3.22;;;1.00;;
18711;SDS011;9485;49.386;8.674;2023-07-13T07:44:58;7.03;;;1.70;;
18711;SDS011;9485;49.386;8.674;2023-07-13T07:50:23;2.03;;;1.35;;
18711;SDS011;9485;49.386;8.674;2023-07-13T07:55:44;2.55;;;1.50;;
18711;SDS011;9485;49.386;8.674;2023-07-13T08:01:08;1.15;;;0.85;;
18711;SDS011;9485;49.386;8.674;2023-07-13T08:06:32;1.85;;;0.93;;
18711;SDS011;9485;49.386;8.674;2023-07-13T08:11:55;3.65;;;1.23;;
18711;SDS011;9485;49.386;8.674;2023-07-13T08:17:19;1.58;;;0.80;;
18711;SDS011;9485;49.386;8.674;2023-07-13T08:22:45;1.40;;;0.88;;
18711;SDS011;9485;49.386;8.674;2023-07-13T08:28:07;1.27;;;0.98;;
18711;SDS011;9485;49.386;8.674;2023-07-13T08:33:28;2.13;;;1.05;;
18711;SDS011;9485;49.386;8.674;2023-07-13T08:38:50;1.77;;;0.95;;
18711;SDS011;9485;49.386;8.674;2023-07-13T08:44:15;1.25;;;1.00;;
18711;SDS011;9485;49.386;8.674;2023-07-13T08:49:47;2.75;;;1.10;;
18711;SDS011;9485;49.386;8.674;2023-07-13T08:55:11;2.85;;;0.98;;
18711;SDS011;9485;49.386;8.674;2023-07-13T09:00:38;1.35;;;0.88;;
18711;SDS011;9485;49.386;8.674;2023-07-13T09:06:10;2.88;;;1.00;;
18711;SDS011;9485;49.386;8.674;2023-07-13T09:11:41;1.40;;;0.90;;
18711;SDS011;9485;49.386;8.674;2023-07-13T09:17:14;2.60;;;0.98;;
18711;SDS011;9485;49.386;8.674;2023-07-13T09:22:39;1.48;;;0.80;;
18711;SDS011;9485;49.386;8.674;2023-07-13T09:28:08;0.88;;;0.70;;
18711;SDS011;9485;49.386;8.674;2023-07-13T09:33:34;1.55;;;0.85;;
18711;SDS011;9485;49.386;8.674;2023-07-13T09:38:59;1.35;;;1.05;;
18711;SDS011;9485;49.386;8.674;2023-07-13T09:44:34;1.40;;;0.90;;
18711;SDS011;9485;49.386;8.674;2023-07-13T09:49:58;2.10;;;1.00;;
18711;SDS011;9485;49.386;8.674;2023-07-13T09:55:25;1.60;;;0.90;;
18711;SDS011;9485;49.386;8.674;2023-07-13T10:00:56;1.75;;;1.15;;
18711;SDS011;9485;49.386;8.674;2023-07-13T10:06:20;2.08;;;1.25;;
18711;SDS011;9485;49.386;8.674;2023-07-13T10:11:43;1.63;;;1.08;;
18711;SDS011;9485;49.386;8.674;2023-07-13T10:17:08;3.85;;;0.88;;
18711;SDS011;9485;49.386;8.674;2023-07-13T10:22:36;1.02;;;0.80;;
18711;SDS011;9485;49.386;8.674;2023-07-13T10:28:11;1.92;;;0.88;;
18711;SDS011;9485;49.386;8.674;2023-07-13T10:33:48;1.25;;;1.02;;
18711;SDS011;9485;49.386;8.674;2023-07-13T10:39:10;1.63;;;1.00;;
18711;SDS011;9485;49.386;8.674;2023-07-13T10:44:38;0.95;;;0.88;;
18711;SDS011;9485;49.386;8.674;2023-07-13T10:50:00;2.25;;;1.00;;
18711;SDS011;9485;49.386;8.674;2023-07-13T10:55:36;0.80;;;0.73;;
18711;SDS011;9485;49.386;8.674;2023-07-13T11:01:03;1.85;;;0.85;;
18711;SDS011;9485;49.386;8.674;2023-07-13T11:06:32;1.73;;;1.23;;
18711;SDS011;9485;49.386;8.674;2023-07-13T11:11:58;1.67;;;0.90;;
18711;SDS011;9485;49.386;8.674;2023-07-13T11:17:32;0.77;;;0.77;;
18711;SDS011;9485;49.386;8.674;2023-07-13T11:23:16;0.73;;;0.60;;
18711;SDS011;9485;49.386;8.674;2023-07-13T11:28:51;0.90;;;0.60;;
18711;SDS011;9485;49.386;8.674;2023-07-13T11:34:13;2.30;;;0.82;;
18711;SDS011;9485;49.386;8.674;2023-07-13T11:39:40;1.92;;;1.08;;
18711;SDS011;9485;49.386;8.674;2023-07-13T11:45:12;1.67;;;0.80;;
18711;SDS011;9485;49.386;8.674;2023-07-13T11:50:42;0.70;;;0.70;;
18711;SDS011;9485;49.386;8.674;2023-07-13T11:56:15;2.35;;;1.05;;
18711;SDS011;9485;49.386;8.674;2023-07-13T12:01:38;1.98;;;0.77;;
18711;SDS011;9485;49.386;8.674;2023-07-13T12:07:11;1.00;;;0.70;;
18711;SDS011;9485;49.386;8.674;2023-07-13T12:12:37;1.92;;;0.90;;
18711;SDS011;9485;49.386;8.674;2023-07-13T12:18:10;2.30;;;0.80;;
18711;SDS011;9485;49.386;8.674;2023-07-13T12:23:34;0.68;;;0.68;;
18711;SDS011;9485;49.386;8.674;2023-07-13T12:28:58;1.25;;;0.73;;
18711;SDS011;9485;49.386;8.674;2023-07-13T12:34:24;2.17;;;0.77;;
18711;SDS011;9485;49.386;8.674;2023-07-13T12:39:48;1.50;;;0.90;;
18711;SDS011;9485;49.386;8.674;2023-07-13T12:45:18;3.42;;;0.80;;
18711;SDS011;9485;49.386;8.674;2023-07-13T12:50:46;1.58;;;0.80;;
18711;SDS011;9485;49.386;8.674;2023-07-13T12:56:12;0.88;;;0.70;;
18711;SDS011;9485;49.386;8.674;2023-07-13T13:01:42;0.70;;;0.60;;
18711;SDS011;9485;49.386;8.674;2023-07-13T13:07:05;1.38;;;0.80;;
18711;SDS011;9485;49.386;8.674;2023-07-13T13:12:29;1.27;;;0.73;;
18711;SDS011;9485;49.386;8.674;2023-07-13T13:17:52;3.20;;;0.93;;
18711;SDS011;9485;49.386;8.674;2023-07-13T13:23:14;1.55;;;0.93;;
18711;SDS011;9485;49.386;8.674;2023-07-13T13:28:36;2.10;;;0.90;;
18711;SDS011;9485;49.386;8.674;2023-07-13T13:33:58;1.45;;;0.73;;
18711;SDS011;9485;49.386;8.674;2023-07-13T13:39:20;1.33;;;0.77;;
18711;SDS011;9485;49.386;8.674;2023-07-13T13:44:44;1.58;;;0.75;;
18711;SDS011;9485;49.386;8.674;2023-07-13T13:50:13;2.83;;;0.90;;
18711;SDS011;9485;49.386;8.674;2023-07-13T13:55:37;1.13;;;0.85;;
18711;SDS011;9485;49.386;8.674;2023-07-13T14:01:00;1.67;;;0.85;;
18711;SDS011;9485;49.386;8.674;2023-07-13T14:06:22;1.17;;;0.95;;
18711;SDS011;9485;49.386;8.674;2023-07-13T14:11:42;1.80;;;1.05;;
18711;SDS011;9485;49.386;8.674;2023-07-13T14:17:08;1.35;;;0.70;;
18711;SDS011;9485;49.386;8.674;2023-07-13T14:22:42;1.92;;;1.33;;
18711;SDS011;9485;49.386;8.674;2023-07-13T14:28:10;1.15;;;0.98;;
18711;SDS011;9485;49.386;8.674;2023-07-13T14:33:43;1.65;;;1.00;;
18711;SDS011;9485;49.386;8.674;2023-07-13T14:39:10;1.17;;;1.08;;
18711;SDS011;9485;49.386;8.674;2023-07-13T14:44:34;2.13;;;1.00;;
18711;SDS011;9485;49.386;8.674;2023-07-13T14:49:55;1.63;;;0.93;;
18711;SDS011;9485;49.386;8.674;2023-07-13T14:55:18;1.35;;;0.90;;
18711;SDS011;9485;49.386;8.674;2023-07-13T15:00:40;1.02;;;0.88;;
18711;SDS011;9485;49.386;8.674;2023-07-13T15:06:02;2.53;;;0.82;;
18711;SDS011;9485;49.386;8.674;2023-07-13T15:11:25;1.92;;;1.27;;
18711;SDS011;9485;49.386;8.674;2023-07-13T15:16:46;1.10;;;0.85;;
18711;SDS011;9485;49.386;8.674;2023-07-13T15:22:09;1.30;;;1.00;;
18711;SDS011;9485;49.386;8.674;2023-07-13T15:27:31;3.05;;;0.98;;
18711;SDS011;9485;49.386;8.674;2023-07-13T15:32:52;1.52;;;0.90;;
18711;SDS011;9485;49.386;8.674;2023-07-13T15:38:13;0.90;;;0.70;;
18711;SDS011;9485;49.386;8.674;2023-07-13T15:43:38;1.38;;;1.08;;
18711;SDS011;9485;49.386;8.674;2023-07-13T15:48:59;1.33;;;0.95;;
18711;SDS011;9485;49.386;8.674;2023-07-13T15:54:20;3.00;;;0.90;;
18711;SDS011;9485;49.386;8.674;2023-07-13T15:59:44;1.90;;;1.00;;
18711;SDS011;9485;49.386;8.674;2023-07-13T16:05:06;1.60;;;0.80;;
18711;SDS011;9485;49.386;8.674;2023-07-13T16:10:27;1.42;;;1.25;;
18711;SDS011;9485;49.386;8.674;2023-07-13T16:15:54;1.30;;;1.20;;
18711;SDS011;9485;49.386;8.674;2023-07-13T16:21:15;2.80;;;1.33;;
18711;SDS011;9485;49.386;8.674;2023-07-13T16:26:37;1.20;;;0.95;;
18711;SDS011;9485;49.386;8.674;2023-07-13T16:32:03;1.02;;;0.90;;
18711;SDS011;9485;49.386;8.674;2023-07-13T16:37:27;1.75;;;1.05;;
18711;SDS011;9485;49.386;8.674;2023-07-13T16:42:49;1.38;;;0.98;;
18711;SDS011;9485;49.386;8.674;2023-07-13T16:48:14;1.98;;;1.08;;
18711;SDS011;9485;49.386;8.674;2023-07-13T16:53:37;0.98;;;0.93;;
18711;SDS011;9485;49.386;8.674;2023-07-13T16:58:59;2.28;;;1.10;;
18711;SDS011;9485;49.386;8.674;2023-07-13T17:04:22;1.52;;;0.90;;
18711;SDS011;9485;49.386;8.674;2023-07-13T17:09:43;1.40;;;0.98;;
18711;SDS011;9485;49.386;8.674;2023-07-13T17:15:07;2.03;;;1.30;;
18711;SDS011;9485;49.386;8.674;2023-07-13T17:20:32;1.35;;;0.98;;
18711;SDS011;9485;49.386;8.674;2023-07-13T17:25:58;4.10;;;1.00;;
18711;SDS011;9485;49.386;8.674;2023-07-13T17:31:20;1.98;;;0.90;;
18711;SDS011;9485;49.386;8.674;2023-07-13T17:36:42;1.48;;;1.10;;
18711;SDS011;9485;49.386;8.674;2023-07-13T17:42:05;1.80;;;0.95;;
18711;SDS011;9485;49.386;8.674;2023-07-13T17:47:26;2.25;;;1.08;;
18711;SDS011;9485;49.386;8.674;2023-07-13T17:52:49;1.80;;;0.90;;
18711;SDS011;9485;49.386;8.674;2023-07-13T17:58:10;1.05;;;0.70;;
18711;SDS011;9485;49.386;8.674;2023-07-13T18:03:31;1.92;;;0.95;;
18711;SDS011;9485;49.386;8.674;2023-07-13T18:09:12;1.70;;;1.10;;
18711;SDS011;9485;49.386;8.674;2023-07-13T18:14:35;1.63;;;0.82;;
18711;SDS011;9485;49.386;8.674;2023-07-13T18:19:56;1.00;;;0.85;;
18711;SDS011;9485;49.386;8.674;2023-07-13T18:25:19;1.33;;;0.80;;
18711;SDS011;9485;49.386;8.674;2023-07-13T18:30:44;1.60;;;0.63;;
18711;SDS011;9485;49.386;8.674;2023-07-13T18:36:12;1.35;;;0.88;;
18711;SDS011;9485;49.386;8.674;2023-07-13T18:41:36;1.80;;;0.90;;
18711;SDS011;9485;49.386;8.674;2023-07-13T18:46:57;2.58;;;1.05;;
18711;SDS011;9485;49.386;8.674;2023-07-13T18:52:18;0.82;;;0.70;;
18711;SDS011;9485;49.386;8.674;2023-07-13T18:57:42;1.80;;;1.00;;
18711;SDS011;9485;49.386;8.674;2023-07-13T19:03:03;1.50;;;1.40;;
18711;SDS011;9485;49.386;8.674;2023-07-13T19:08:31;1.80;;;1.40;;
18711;SDS011;9485;49.386;8.674;2023-07-13T19:13:54;2.05;;;1.35;;
18711;SDS011;9485;49.386;8.674;2023-07-13T19:19:15;1.60;;;1.40;;
18711;SDS011;9485;49.386;8.674;2023-07-13T19:24:38;1.95;;;1.27;;
18711;SDS011;9485;49.386;8.674;2023-07-13T19:30:00;2.22;;;1.70;;
18711;SDS011;9485;49.386;8.674;2023-07-13T19:35:22;2.08;;;1.83;;
18711;SDS011;9485;49.386;8.674;2023-07-13T19:40:47;2.35;;;2.08;;
18711;SDS011;9485;49.386;8.674;2023-07-13T19:46:12;3.03;;;2.10;;
18711;SDS011;9485;49.386;8.674;2023-07-13T19:51:41;4.40;;;2.08;;
18711;SDS011;9485;49.386;8.674;2023-07-13T19:57:01;2.25;;;1.77;;
18711;SDS011;9485;49.386;8.674;2023-07-13T20:02:24;2.97;;;1.90;;
18711;SDS011;9485;49.386;8.674;2023-07-13T20:07:45;4.70;;;2.67;;
18711;SDS011;9485;49.386;8.674;2023-07-13T20:13:13;2.67;;;2.00;;
18711;SDS011;9485;49.386;8.674;2023-07-13T20:18:36;3.45;;;2.30;;
18711;SDS011;9485;49.386;8.674;2023-07-13T20:23:56;3.40;;;2.38;;
18711;SDS011;9485;49.386;8.674;2023-07-13T20:29:17;2.70;;;1.83;;
18711;SDS011;9485;49.386;8.674;2023-07-13T20:34:39;2.50;;;1.50;;
18711;SDS011;9485;49.386;8.674;2023-07-13T20:40:01;2.28;;;1.73;;
18711;SDS011;9485;49.386;8.674;2023-07-13T20:45:32;1.73;;;1.48;;
18711;SDS011;9485;49.386;8.674;2023-07-13T20:50:57;2.97;;;1.88;;
18711;SDS011;9485;49.386;8.674;2023-07-13T20:56:23;1.83;;;1.55;;
18711;SDS011;9485;49.386;8.674;2023-07-13T21:01:47;3.42;;;1.65;;
18711;SDS011;9485;49.386;8.674;2023-07-13T21:07:10;3.72;;;2.00;;
18711;SDS011;9485;49.386;8.674;2023-07-13T21:12:39;2.75;;;1.92;;
18711;SDS011;9485;49.386;8.674;2023-07-13T21:18:00;2.10;;;1.70;;
18711;SDS011;9485;49.386;8.674;2023-07-13T21:23:26;2.28;;;1.65;;
18711;SDS011;9485;49.386;8.674;2023-07-13T21:28:49;2.83;;;2.00;;
18711;SDS011;9485;49.386;8.674;2023-07-13T21:34:12;2.28;;;1.88;;
18711;SDS011;9485;49.386;8.674;2023-07-13T21:39:39;1.70;;;1.40;;
18711;SDS011;9485;49.386;8.674;2023-07-13T21:44:59;2.03;;;1.50;;
18711;SDS011;9485;49.386;8.674;2023-07-13T21:50:35;2.90;;;1.50;;
18711;SDS011;9485;49.386;8.674;2023-07-13T21:56:00;2.85;;;1.48;;
18711;SDS011;9485;49.386;8.674;2023-07-13T22:01:22;1.77;;;1.23;;
18711;SDS011;9485;49.386;8.674;2023-07-13T22:06:52;2.67;;;1.50;;
18711;SDS011;9485;49.386;8.674;2023-07-13T22:12:15;3.13;;;1.50;;
18711;SDS011;9485;49.386;8.674;2023-07-13T22:17:37;3.45;;;1.40;;
18711;SDS011;9485;49.386;8.674;2023-07-13T22:23:07;3.65;;;1.60;;
18711;SDS011;9485;49.386;8.674;2023-07-13T22:28:38;2.30;;;1.30;;
18711;SDS011;9485;49.386;8.674;2023-07-13T22:33:59;2.00;;;1.25;;
18711;SDS011;9485;49.386;8.674;2023-07-13T22:39:23;2.17;;;1.33;;
18711;SDS011;9485;49.386;8.674;2023-07-13T22:44:49;1.70;;;1.30;;
18711;SDS011;9485;49.386;8.674;2023-07-13T22:50:12;3.17;;;1.55;;
18711;SDS011;9485;49.386;8.674;2023-07-13T22:55:35;2.38;;;1.40;;
18711;SDS011;9485;49.386;8.674;2023-07-13T23:00:58;1.35;;;1.10;;
18711;SDS011;9485;49.386;8.674;2023-07-13T23:06:22;1.50;;;1.40;;
18711;SDS011;9485;49.386;8.674;2023-07-13T23:11:47;1.95;;;1.38;;
18711;SDS011;9485;49.386;8.674;2023-07-13T23:17:11;1.45;;;1.17;;
18711;SDS011;9485;49.386;8.674;2023-07-13T23:22:33;1.95;;;1.30;;
18711;SDS011;9485;49.386;8.674;2023-07-13T23:27:54;2.08;;;1.20;;
18711;SDS011;9485;49.386;8.674;2023-07-13T23:33:21;1.88;;;1.10;;
18711;SDS011;9485;49.386;8.674;2023-07-13T23:38:46;1.17;;;1.08;;
18711;SDS011;9485;49.386;8.674;2023-07-13T23:44:07;1.77;;;1.30;;
18711;SDS011;9485;49.386;8.674;2023-07-13T23:49:31;1.52;;;1.33;;
18711;SDS011;9485;49.386;8.674;2023-07-13T23:54:52;1.30;;;1.20;;
